createdAt,value
2018-01-13T00:01:31.246Z,24.67
2018-01-13T00:04:01.112Z,24.70
2018-01-13T00:06:31.117Z,23.13
2018-01-13T00:09:00.983Z,24.30
2018-01-13T00:11:30.881Z,26.30
2018-01-13T00:14:00.739Z,25.07
2018-01-13T00:16:30.774Z,26.70
2018-01-13T00:19:00.644Z,24.17
2018-01-13T00:21:30.549Z,23.77
2018-01-13T00:24:00.408Z,25.17
2018-01-13T00:26:30.254Z,22.87
2018-01-13T00:29:00.157Z,24.10
2018-01-13T00:31:30.040Z,22.23
2018-01-13T00:33:59.930Z,22.17
2018-01-13T00:36:29.793Z,24.20
2018-01-13T00:38:59.678Z,24.60
2018-01-13T00:41:29.597Z,23.67
2018-01-13T00:43:59.454Z,24.80
2018-01-13T00:46:29.400Z,24.97
2018-01-13T00:48:59.281Z,20.57
2018-01-13T00:51:29.192Z,23.23
2018-01-13T00:53:59.057Z,22.87
2018-01-13T00:56:28.936Z,24.23
2018-01-13T00:58:58.809Z,24.30
2018-01-13T01:01:28.660Z,25.47
2018-01-13T01:03:58.529Z,24.40
2018-01-13T01:06:28.392Z,23.67
2018-01-13T01:08:58.374Z,23.37
2018-01-13T01:11:28.238Z,23.07
2018-01-13T01:13:58.114Z,22.67
2018-01-13T01:16:27.960Z,23.60
2018-01-13T01:18:57.865Z,23.60
2018-01-13T01:21:27.742Z,22.53
2018-01-13T01:23:58.629Z,24.93
2018-01-13T01:26:28.517Z,26.10
2018-01-13T01:28:58.398Z,23.83
2018-01-13T01:31:28.281Z,24.10
2018-01-13T01:33:58.337Z,25.13
2018-01-13T01:36:28.253Z,23.87
2018-01-13T01:38:58.112Z,22.20
2018-01-13T01:41:28.203Z,24.17
2018-01-13T01:43:58.290Z,23.00
2018-01-13T01:46:28.191Z,22.60
2018-01-13T01:48:58.065Z,23.80
2018-01-13T01:51:27.967Z,25.60
2018-01-13T01:53:57.849Z,22.40
2018-01-13T01:56:27.905Z,24.87
2018-01-13T01:58:57.773Z,22.90
2018-01-13T02:01:27.659Z,22.00
2018-01-13T02:03:57.567Z,21.50
2018-01-13T02:06:27.513Z,23.40
2018-01-13T02:08:57.407Z,22.47
2018-01-13T02:11:27.269Z,23.10
2018-01-13T02:13:57.197Z,21.20
2018-01-13T02:16:27.081Z,23.00
2018-01-13T02:18:56.976Z,23.93
2018-01-13T02:21:26.858Z,23.83
2018-01-13T02:23:56.738Z,23.33
2018-01-13T02:26:26.772Z,21.47
2018-01-13T02:28:56.629Z,22.67
2018-01-13T02:31:27.604Z,22.93
2018-01-13T02:33:57.589Z,23.37
2018-01-13T02:36:27.480Z,22.10
2018-01-13T02:38:57.347Z,21.70
2018-01-13T02:41:27.247Z,24.03
2018-01-13T02:43:57.099Z,21.13
2018-01-13T02:46:27.175Z,22.40
2018-01-13T02:48:57.025Z,25.60
2018-01-13T02:51:26.924Z,24.17
2018-01-13T02:53:56.787Z,24.07
2018-01-13T02:56:26.719Z,24.17
2018-01-13T02:58:56.620Z,23.70
2018-01-13T03:01:26.485Z,23.67
2018-01-13T03:03:56.430Z,23.20
2018-01-13T03:06:26.342Z,25.83
2018-01-13T03:08:56.211Z,24.90
2018-01-13T03:11:26.080Z,24.00
2018-01-13T03:13:56.131Z,24.97
2018-01-13T03:16:25.994Z,25.27
2018-01-13T03:18:55.879Z,22.83
2018-01-13T03:21:25.756Z,24.03
2018-01-13T03:23:55.704Z,24.27
2018-01-13T03:26:25.536Z,24.10
2018-01-13T03:28:55.412Z,23.80
2018-01-13T03:31:25.291Z,24.83
2018-01-13T03:33:55.178Z,25.63
2018-01-13T03:36:25.173Z,26.77
2018-01-13T03:38:55.761Z,26.77
2018-01-13T03:41:25.654Z,24.50
2018-01-13T03:43:55.516Z,25.90
2018-01-13T03:46:25.421Z,25.87
2018-01-13T03:48:55.287Z,26.87
2018-01-13T03:51:25.276Z,67.40
2018-01-13T03:53:55.182Z,29.90
2018-01-13T03:56:25.278Z,28.90
2018-01-13T03:58:55.144Z,29.70
2018-01-13T04:01:25.031Z,29.30
2018-01-13T04:03:54.911Z,29.60
2018-01-13T04:06:24.865Z,30.70
2018-01-13T04:08:54.858Z,30.30
2018-01-13T04:11:24.722Z,29.60
2018-01-13T04:13:54.623Z,31.07
2018-01-13T04:16:24.569Z,30.63
2018-01-13T04:18:54.617Z,31.70
2018-01-13T04:21:24.513Z,31.40
2018-01-13T04:23:54.445Z,29.60
2018-01-13T04:26:24.579Z,32.17
2018-01-13T04:28:54.594Z,31.90
2018-01-13T04:31:24.615Z,32.67
2018-01-13T04:33:54.514Z,35.07
2018-01-13T04:36:24.392Z,31.43
2018-01-13T04:38:54.346Z,34.03
2018-01-13T04:41:24.223Z,34.17
2018-01-13T04:43:54.147Z,32.77
2018-01-13T04:46:24.037Z,32.73
2018-01-13T04:48:53.931Z,33.17
2018-01-13T04:51:24.702Z,33.00
2018-01-13T04:53:54.575Z,33.87
2018-01-13T04:56:24.467Z,35.20
2018-01-13T04:58:54.340Z,35.60
2018-01-13T05:01:24.236Z,33.87
2018-01-13T05:03:54.108Z,37.70
2018-01-13T05:06:24.023Z,34.53
2018-01-13T05:08:53.901Z,37.37
2018-01-13T05:11:23.803Z,33.93
2018-01-13T05:13:53.721Z,35.17
2018-01-13T05:16:23.613Z,32.90
2018-01-13T05:18:53.499Z,35.17
2018-01-13T05:21:23.374Z,34.33
2018-01-13T05:23:53.313Z,35.47
2018-01-13T05:26:23.211Z,37.47
2018-01-13T05:28:53.215Z,38.23
2018-01-13T05:31:23.075Z,34.73
2018-01-13T05:33:53.811Z,29.70
2018-01-13T05:36:23.674Z,36.83
2018-01-13T05:38:53.561Z,36.60
2018-01-13T05:41:23.469Z,38.23
2018-01-13T05:43:53.458Z,36.83
2018-01-13T05:46:23.433Z,37.50
2018-01-13T05:48:53.359Z,37.50
2018-01-13T05:51:23.237Z,39.00
2018-01-13T05:53:53.166Z,38.90
2018-01-13T05:56:23.042Z,39.50
2018-01-13T05:58:52.967Z,39.40
2018-01-13T06:01:22.840Z,35.50
2018-01-13T06:03:52.776Z,39.43
2018-01-13T06:06:22.658Z,37.27
2018-01-13T06:08:52.613Z,35.43
2018-01-13T06:11:23.286Z,39.30
2018-01-13T06:13:53.236Z,37.77
2018-01-13T06:16:23.199Z,39.73
2018-01-13T06:18:53.093Z,39.73
2018-01-13T06:21:23.009Z,39.90
2018-01-13T06:23:52.915Z,39.80
2018-01-13T06:26:22.786Z,40.20
2018-01-13T06:28:52.645Z,37.07
2018-01-13T06:31:22.555Z,39.87
2018-01-13T06:33:52.452Z,37.73
2018-01-13T06:36:22.368Z,39.50
2018-01-13T06:38:52.294Z,43.60
2018-01-13T06:41:22.144Z,42.80
2018-01-13T06:43:52.031Z,41.33
2018-01-13T06:46:21.894Z,42.23
2018-01-13T06:48:51.801Z,41.20
2018-01-13T06:51:21.715Z,41.90
2018-01-13T06:53:51.584Z,42.57
2018-01-13T06:56:21.571Z,43.60
2018-01-13T06:58:51.466Z,41.20
2018-01-13T07:01:21.367Z,41.37
2018-01-13T07:03:51.312Z,42.50
2018-01-13T07:06:21.344Z,43.37
2018-01-13T07:08:51.221Z,42.20
2018-01-13T07:11:22.223Z,43.43
2018-01-13T07:13:52.054Z,44.10
2018-01-13T07:16:21.997Z,42.20
2018-01-13T07:18:51.943Z,43.77
2018-01-13T07:21:21.877Z,45.60
2018-01-13T07:23:51.794Z,40.97
2018-01-13T07:26:21.679Z,46.07
2018-01-13T07:28:51.590Z,42.40
2018-01-13T07:31:21.484Z,44.90
2018-01-13T07:33:51.423Z,41.90
2018-01-13T07:36:21.338Z,45.03
2018-01-13T07:38:51.204Z,45.83
2018-01-13T07:41:21.177Z,44.57
2018-01-13T07:43:51.046Z,42.97
2018-01-13T07:46:20.968Z,42.90
2018-01-13T07:48:50.831Z,46.97
2018-01-13T07:51:20.685Z,41.87
2018-01-13T07:53:50.650Z,44.37
2018-01-13T07:56:20.523Z,42.50
2018-01-13T07:58:50.409Z,42.90
2018-01-13T08:01:20.282Z,44.70
2018-01-13T08:03:50.186Z,40.57
2018-01-13T08:06:20.048Z,43.97
2018-01-13T08:08:49.966Z,42.13
2018-01-13T08:11:19.828Z,42.50
2018-01-13T08:13:49.799Z,42.33
2018-01-13T08:16:19.740Z,43.40
2018-01-13T08:18:49.604Z,44.63
2018-01-13T08:21:19.501Z,42.10
2018-01-13T08:23:49.441Z,42.00
2018-01-13T08:26:19.357Z,44.17
2018-01-13T08:28:49.284Z,42.60
2018-01-13T08:31:19.245Z,43.87
2018-01-13T08:33:49.467Z,43.60
2018-01-13T08:36:19.381Z,42.03
2018-01-13T08:38:49.252Z,44.33
2018-01-13T08:41:19.168Z,43.30
2018-01-13T08:43:49.024Z,45.10
2018-01-13T08:46:18.924Z,44.80
2018-01-13T08:48:48.790Z,43.03
2018-01-13T08:51:18.644Z,39.07
2018-01-13T08:53:48.529Z,44.07
2018-01-13T08:56:18.398Z,43.37
2018-01-13T08:58:48.283Z,41.90
2018-01-13T09:04:24.584Z,42.50
2018-01-13T09:06:54.450Z,45.47
2018-01-13T09:09:24.349Z,46.40
2018-01-13T09:11:54.235Z,45.10
2018-01-13T09:14:24.134Z,39.00
2018-01-13T09:16:54.008Z,39.60
2018-01-13T09:19:23.919Z,41.60
2018-01-13T09:21:53.791Z,39.50
2018-01-13T09:24:23.653Z,42.20
2018-01-13T09:26:53.569Z,44.77
2018-01-13T09:29:23.463Z,44.00
2018-01-13T09:31:54.309Z,44.13
2018-01-13T09:34:24.292Z,44.50
2018-01-13T09:36:54.200Z,42.00
2018-01-13T09:39:24.076Z,46.30
2018-01-13T09:41:54.077Z,45.33
2018-01-13T09:44:23.954Z,41.63
2018-01-13T09:46:53.796Z,41.93
2018-01-13T09:49:23.709Z,43.17
2018-01-13T09:51:53.618Z,42.20
2018-01-13T09:54:23.542Z,39.20
2018-01-13T09:56:53.443Z,40.13
2018-01-13T09:59:23.370Z,36.83
2018-01-13T10:01:53.259Z,42.27
2018-01-13T10:04:23.167Z,42.30
2018-01-13T10:06:53.013Z,41.73
2018-01-13T10:09:22.895Z,42.07
2018-01-13T10:11:52.758Z,43.77
2018-01-13T10:14:22.642Z,43.47
2018-01-13T10:16:52.541Z,45.10
2018-01-13T10:19:22.415Z,46.77
2018-01-13T10:21:52.338Z,45.50
2018-01-13T10:24:22.213Z,46.00
2018-01-13T10:26:52.109Z,38.83
2018-01-13T10:29:21.953Z,45.97
2018-01-13T10:31:51.860Z,44.93
2018-01-13T10:34:21.738Z,42.17
2018-01-13T10:36:51.631Z,43.93
2018-01-13T10:39:21.640Z,39.77
2018-01-13T10:41:51.525Z,44.00
2018-01-13T10:44:21.552Z,42.93
2018-01-13T10:46:51.446Z,44.50
2018-01-13T10:49:21.368Z,45.20
2018-01-13T10:51:51.221Z,42.93
2018-01-13T10:54:21.157Z,49.30
2018-01-13T10:56:51.009Z,41.40
2018-01-13T10:59:20.922Z,43.20
2018-01-13T11:01:50.811Z,42.70
2018-01-13T11:04:20.670Z,46.00
2018-01-13T11:06:50.575Z,47.00
2018-01-13T11:09:20.706Z,46.50
2018-01-13T11:11:50.654Z,45.53
2018-01-13T11:14:20.685Z,41.47
2018-01-13T11:16:50.797Z,47.00
2018-01-13T11:19:20.678Z,46.23
2018-01-13T11:21:50.557Z,44.00
2018-01-13T11:24:20.441Z,47.40
2018-01-13T11:26:50.347Z,46.70
2018-01-13T11:29:20.221Z,46.27
2018-01-13T11:31:50.124Z,47.37
2018-01-13T11:34:20.027Z,42.47
2018-01-13T11:36:49.965Z,48.27
2018-01-13T11:39:19.891Z,44.97
2018-01-13T11:41:49.779Z,46.33
2018-01-13T11:44:19.707Z,45.87
2018-01-13T11:46:49.614Z,47.00
2018-01-13T11:49:19.560Z,45.67
2018-01-13T11:51:49.539Z,44.20
2018-01-13T11:54:24.876Z,48.20
2018-01-13T11:56:54.748Z,44.87
2018-01-13T11:59:24.767Z,48.63
2018-01-13T12:01:54.660Z,47.50
2018-01-13T12:04:24.603Z,47.73
2018-01-13T12:06:54.596Z,46.27
2018-01-13T12:09:24.543Z,48.57
2018-01-13T12:11:54.553Z,46.53
2018-01-13T12:14:24.519Z,48.97
2018-01-13T12:16:54.449Z,47.70
2018-01-13T12:19:24.729Z,45.83
2018-01-13T12:21:54.810Z,46.77
2018-01-13T12:24:24.888Z,45.80
2018-01-13T12:26:55.571Z,48.33
2018-01-13T12:29:25.557Z,46.27
2018-01-13T12:31:55.422Z,48.40
2018-01-13T12:34:25.359Z,47.53
2018-01-13T12:36:55.257Z,45.93
2018-01-13T12:39:25.215Z,46.93
2018-01-13T12:41:55.216Z,43.90
2018-01-13T12:44:25.853Z,47.37
2018-01-13T12:46:56.186Z,44.90
2018-01-13T12:49:26.249Z,44.13
2018-01-13T12:51:56.128Z,45.00
2018-01-13T12:54:26.033Z,45.10
2018-01-13T12:56:56.113Z,48.00
2018-01-13T13:05:32.672Z,46.17
2018-01-13T13:08:04.362Z,45.03
2018-01-13T13:10:34.337Z,44.67
2018-01-13T13:13:04.279Z,43.57
2018-01-13T13:15:34.193Z,47.37
2018-01-13T13:18:04.089Z,44.00
2018-01-13T13:20:34.007Z,48.07
2018-01-13T13:23:03.884Z,44.80
2018-01-13T13:25:33.826Z,46.67
2018-01-13T13:28:03.810Z,46.70
2018-01-13T13:30:33.693Z,47.60
2018-01-13T13:33:03.612Z,46.03
2018-01-13T13:35:33.552Z,44.30
2018-01-13T13:38:03.441Z,44.27
2018-01-13T13:40:33.600Z,45.67
2018-01-13T13:43:03.528Z,43.97
2018-01-13T13:45:33.515Z,44.00
2018-01-13T13:48:03.516Z,42.33
2018-01-13T13:50:34.249Z,43.03
2018-01-13T13:53:05.164Z,42.90
2018-01-13T13:55:35.059Z,44.13
2018-01-13T13:58:05.043Z,39.27
2018-01-13T14:00:34.953Z,37.80
2018-01-13T14:03:04.857Z,38.30
2018-01-13T14:05:34.790Z,39.33
2018-01-13T14:08:04.685Z,40.43
2018-01-13T14:10:34.618Z,36.77
2018-01-13T14:13:04.549Z,39.30
2018-01-13T14:15:34.610Z,39.23
2018-01-13T14:18:04.553Z,37.27
2018-01-13T14:20:34.522Z,36.67
2018-01-13T14:23:04.486Z,37.57
2018-01-13T14:25:34.478Z,37.87
2018-01-13T14:28:04.399Z,36.40
2018-01-13T14:30:34.355Z,33.10
2018-01-13T14:33:04.232Z,33.30
2018-01-13T14:35:34.170Z,33.73
2018-01-13T14:38:04.124Z,35.60
2018-01-13T14:40:34.069Z,34.27
2018-01-13T14:43:03.957Z,33.57
2018-01-13T14:45:33.896Z,30.33
2018-01-13T14:48:03.803Z,32.90
2018-01-13T14:50:33.759Z,34.17
2018-01-13T14:53:03.684Z,32.60
2018-01-13T14:55:33.580Z,34.03
2018-01-13T14:58:04.191Z,34.20
2018-01-13T15:00:34.127Z,33.07
2018-01-13T15:03:04.039Z,32.37
2018-01-13T15:05:34.038Z,32.50
2018-01-13T15:08:03.947Z,31.10
2018-01-13T15:10:33.850Z,30.50
2018-01-13T15:13:03.814Z,30.07
2018-01-13T15:15:33.885Z,29.37
2018-01-13T15:18:03.815Z,30.37
2018-01-13T15:20:33.778Z,32.80
2018-01-13T15:23:03.699Z,29.90
2018-01-13T15:25:33.653Z,27.00
2018-01-13T15:28:03.630Z,27.97
2018-01-13T15:30:33.541Z,28.97
2018-01-13T15:33:03.479Z,29.47
2018-01-13T15:35:33.435Z,28.30
2018-01-13T15:38:03.388Z,30.53
2018-01-13T15:40:33.467Z,28.13
2018-01-13T15:43:03.538Z,29.50
2018-01-13T15:45:33.542Z,25.83
2018-01-13T15:48:03.488Z,27.10
2018-01-13T15:50:33.467Z,27.33
2018-01-13T15:53:03.466Z,25.07
2018-01-13T15:55:33.399Z,23.63
2018-01-13T15:58:03.310Z,26.33
2018-01-13T16:00:33.452Z,26.87
2018-01-13T16:03:03.363Z,23.60
2018-01-13T16:05:33.527Z,22.10
2018-01-13T16:08:03.439Z,24.73
2018-01-13T16:10:33.381Z,25.03
2018-01-13T16:13:03.331Z,24.33
2018-01-13T16:15:33.282Z,24.80
2018-01-13T16:18:03.158Z,25.40
2018-01-13T16:20:33.086Z,25.63
2018-01-13T16:23:03.084Z,24.60
2018-01-13T16:25:33.894Z,22.83
2018-01-13T16:28:03.825Z,22.57
2018-01-13T16:30:33.834Z,25.63
2018-01-13T16:33:03.736Z,24.57
2018-01-13T16:35:33.665Z,23.20
2018-01-13T16:38:03.592Z,23.97
2018-01-13T16:40:33.522Z,22.70
2018-01-13T16:43:03.412Z,23.50
2018-01-13T16:45:33.520Z,23.87
2018-01-13T16:48:03.418Z,26.37
2018-01-13T16:50:34.070Z,23.83
2018-01-13T16:53:03.989Z,21.13
2018-01-13T16:55:33.927Z,25.47
2018-01-13T16:58:03.799Z,24.30
2018-01-13T17:00:33.731Z,21.73
2018-01-13T17:03:03.627Z,23.90
2018-01-13T17:05:33.638Z,23.47
2018-01-13T17:08:03.596Z,20.70
2018-01-13T17:10:33.575Z,20.70
2018-01-13T17:13:03.513Z,21.20
2018-01-13T17:15:33.458Z,20.87
2018-01-13T17:18:03.454Z,21.80
2018-01-13T17:23:39.718Z,18.47
2018-01-13T17:41:26.133Z,17.87
2018-01-13T17:43:56.176Z,19.80
2018-01-13T17:46:26.099Z,18.23
2018-01-13T17:48:56.119Z,18.43
2018-01-13T17:51:26.202Z,20.90
2018-01-13T17:53:56.161Z,21.50
2018-01-13T17:56:26.318Z,19.60
2018-01-13T17:58:56.324Z,20.10
2018-01-13T18:01:26.924Z,20.20
2018-01-13T18:03:56.886Z,20.37
2018-01-13T18:06:26.843Z,19.70
2018-01-13T18:08:57.307Z,20.53
2018-01-13T18:11:28.053Z,19.90
2018-01-13T18:13:58.097Z,21.77
2018-01-13T18:16:28.041Z,21.30
2018-01-13T18:18:58.219Z,20.17
2018-01-13T18:21:28.142Z,19.13
2018-01-13T18:24:00.091Z,20.90
2018-01-13T18:26:30.058Z,21.53
2018-01-13T18:28:59.944Z,23.53
2018-01-13T18:31:29.845Z,21.97
2018-01-13T18:34:00.579Z,20.17
2018-01-13T18:36:30.472Z,22.73
2018-01-13T18:39:01.195Z,23.57
2018-01-13T18:41:31.224Z,22.83
2018-01-13T18:44:01.185Z,23.97
2018-01-13T18:46:32.851Z,21.80
2018-01-13T18:49:02.805Z,21.97
2018-01-13T18:51:32.883Z,21.47
2018-01-13T18:54:02.778Z,22.03
2018-01-13T18:56:32.710Z,21.07
2018-01-13T18:59:02.679Z,21.63
2018-01-13T19:01:32.618Z,21.73
2018-01-13T19:04:02.561Z,19.93
2018-01-13T19:06:32.455Z,19.10
2018-01-13T19:09:02.440Z,18.77
2018-01-13T19:11:32.361Z,19.30
2018-01-13T19:14:02.341Z,19.43
2018-01-13T19:16:32.627Z,19.80
2018-01-13T19:19:02.754Z,21.03
2018-01-13T19:21:32.669Z,21.20
2018-01-13T19:24:02.615Z,18.10
2018-01-13T19:26:32.611Z,20.10
2018-01-13T19:29:02.569Z,19.10
2018-01-13T19:31:32.430Z,20.40
2018-01-13T19:34:02.410Z,18.27
2018-01-13T19:36:32.302Z,20.37
2018-01-13T19:39:02.212Z,21.20
2018-01-13T19:41:32.093Z,20.30
2018-01-13T19:44:02.032Z,19.20
2018-01-13T19:46:31.903Z,20.67
2018-01-13T19:49:01.939Z,20.43
2018-01-13T19:51:32.039Z,20.00
2018-01-13T19:54:01.946Z,20.30
2018-01-13T19:56:31.859Z,21.00
2018-01-13T19:59:01.775Z,21.23
2018-01-13T20:01:31.729Z,19.60
2018-01-13T20:04:01.688Z,18.07
2018-01-13T20:06:31.585Z,19.33
2018-01-13T20:09:01.485Z,17.47
2018-01-13T20:11:31.443Z,19.37
2018-01-13T20:14:01.354Z,18.80
2018-01-13T20:16:31.296Z,18.20
2018-01-13T20:19:01.205Z,21.00
2018-01-13T20:21:31.213Z,20.60
2018-01-13T20:24:01.222Z,20.53
2018-01-13T20:26:31.121Z,18.37
2018-01-13T20:29:01.061Z,18.57
2018-01-13T20:31:31.007Z,20.40
2018-01-13T20:34:00.949Z,19.27
2018-01-13T20:36:30.942Z,19.57
2018-01-13T20:39:00.838Z,18.13
2018-01-13T20:41:30.837Z,17.87
2018-01-13T20:44:00.727Z,18.80
2018-01-13T20:46:30.650Z,18.30
2018-01-13T20:49:01.441Z,18.10
2018-01-13T20:51:31.408Z,15.23
2018-01-13T20:54:01.410Z,17.70
2018-01-13T20:56:31.307Z,15.30
2018-01-13T20:59:01.242Z,15.90
2018-01-13T21:01:31.133Z,16.70
2018-01-13T21:04:01.112Z,15.40
2018-01-13T21:06:31.027Z,15.80
2018-01-13T21:09:00.934Z,14.97
2018-01-13T21:11:31.175Z,15.53
2018-01-13T21:14:01.201Z,15.07
2018-01-13T21:16:31.102Z,13.60
2018-01-13T21:19:01.009Z,14.87
2018-01-13T21:21:31.026Z,13.47
2018-01-13T21:24:00.955Z,8.00
2018-01-13T21:26:31.054Z,13.97
2018-01-13T21:29:00.968Z,8.73
2018-01-13T21:31:30.867Z,13.97
2018-01-13T21:34:00.781Z,14.17
2018-01-13T21:36:30.732Z,13.53
2018-01-13T21:39:00.638Z,14.37
2018-01-13T21:41:30.604Z,14.20
2018-01-13T21:44:00.515Z,14.50
2018-01-13T21:46:30.517Z,14.80
2018-01-13T21:49:00.435Z,13.27
2018-01-13T21:51:30.317Z,12.73
2018-01-13T21:54:00.201Z,14.90
2018-01-13T21:56:31.174Z,12.97
2018-01-13T21:59:01.168Z,13.70
2018-01-13T22:01:31.038Z,15.00
2018-01-13T22:04:00.937Z,12.00
2018-01-13T22:06:30.799Z,11.33
2018-01-13T22:09:00.705Z,12.83
2018-01-13T22:11:30.636Z,12.87
2018-01-13T22:14:02.387Z,13.20
2018-01-13T22:16:32.305Z,11.47
2018-01-13T22:19:02.205Z,12.37
2018-01-13T22:21:32.140Z,12.53
2018-01-13T22:24:02.070Z,12.47
2018-01-13T22:26:32.031Z,12.70
2018-01-13T22:29:01.998Z,12.27
2018-01-13T22:31:31.894Z,11.90
2018-01-13T22:34:01.952Z,11.73
2018-01-13T22:36:31.859Z,13.30
2018-01-13T22:39:01.713Z,12.50
2018-01-13T22:41:31.596Z,11.87
2018-01-13T22:44:02.418Z,12.63
2018-01-13T22:46:33.443Z,11.13
2018-01-13T22:49:03.448Z,12.80
2018-01-13T22:51:33.350Z,11.27
2018-01-13T22:54:03.338Z,11.00
2018-01-13T22:56:33.229Z,12.00
2018-01-13T22:59:03.242Z,12.67
2018-01-13T23:01:33.157Z,11.27
2018-01-13T23:04:03.105Z,11.33
2018-01-13T23:06:32.985Z,12.10
2018-01-13T23:09:02.875Z,11.60
2018-01-13T23:11:32.746Z,11.40
2018-01-13T23:14:02.671Z,12.63
2018-01-13T23:16:32.820Z,11.57
2018-01-13T23:19:02.733Z,11.83
2018-01-13T23:21:32.606Z,11.97
2018-01-13T23:24:02.501Z,11.17
2018-01-13T23:26:32.493Z,10.83
2018-01-13T23:29:02.404Z,10.40
2018-01-13T23:31:32.285Z,9.93
2018-01-13T23:34:02.216Z,10.67
2018-01-13T23:36:32.092Z,9.47
2018-01-13T23:39:02.401Z,9.83
2018-01-13T23:41:32.265Z,10.67
2018-01-13T23:44:02.174Z,9.80
2018-01-13T23:46:32.081Z,11.27
2018-01-13T23:49:01.953Z,9.40
2018-01-13T23:54:37.725Z,9.90
2018-01-13T23:57:08.121Z,9.00
2018-01-13T23:59:38.079Z,11.40
